Brewster, Minnesota
Current Conditions -  °F | °C
As of 6:15 PM on Wednesday 28 Jan 2015 (Local Time) from KOTG Reporting Station
Overcast Overcast  
Wind Chill: 32°   Ceiling: 400
Heat Index: 32°   Visibility: 2mi
Dew Point: 30°   Wind: 0mph
Humidity: 93%   Direction: NA
Pressure: 29.76"   Gusts: NA
Location:  43.7°N, 95.47°W
Report Text: KOTG 290015Z AUTO 00000KT 2SM OVC004 00/M01 A2976 RMK AO1
Loading
Personal Weather Stations






























Interactive Weather Map New forecast layout! Learn more

10-Day Weather Forecast

Advertisements
Track Severe Weather on mobile